sensor_id;sensor_type;location;lat;lon;timestamp;temperature;humidity
8420;DHT22;4247;48.550;8.822;2023-05-24T00:00:58;13.10;99.90
8420;DHT22;4247;48.550;8.822;2023-05-24T00:03:27;13.10;99.90
8420;DHT22;4247;48.550;8.822;2023-05-24T00:05:55;13.10;99.90
8420;DHT22;4247;48.550;8.822;2023-05-24T00:08:22;13.10;99.90
8420;DHT22;4247;48.550;8.822;2023-05-24T00:10:48;13.10;99.90
8420;DHT22;4247;48.550;8.822;2023-05-24T00:13:15;13.10;99.90
8420;DHT22;4247;48.550;8.822;2023-05-24T00:15:42;13.10;99.90
8420;DHT22;4247;48.550;8.822;2023-05-24T00:18:10;13.10;99.90
8420;DHT22;4247;48.550;8.822;2023-05-24T00:20:37;13.00;99.90
8420;DHT22;4247;48.550;8.822;2023-05-24T00:23:04;13.00;99.90
8420;DHT22;4247;48.550;8.822;2023-05-24T00:25:30;13.00;99.90
8420;DHT22;4247;48.550;8.822;2023-05-24T00:27:57;13.00;99.90
8420;DHT22;4247;48.550;8.822;2023-05-24T00:30:23;13.00;99.90
8420;DHT22;4247;48.550;8.822;2023-05-24T00:32:50;13.00;99.90
8420;DHT22;4247;48.550;8.822;2023-05-24T00:35:18;12.90;99.90
8420;DHT22;4247;48.550;8.822;2023-05-24T00:37:45;12.90;99.90
8420;DHT22;4247;48.550;8.822;2023-05-24T00:40:12;12.90;99.90
8420;DHT22;4247;48.550;8.822;2023-05-24T00:42:39;12.80;99.90
8420;DHT22;4247;48.550;8.822;2023-05-24T00:45:07;12.80;99.90
8420;DHT22;4247;48.550;8.822;2023-05-24T00:47:33;12.70;99.90
8420;DHT22;4247;48.550;8.822;2023-05-24T00:50:00;12.70;99.90
8420;DHT22;4247;48.550;8.822;2023-05-24T00:52:29;12.70;99.90
8420;DHT22;4247;48.550;8.822;2023-05-24T00:54:56;12.70;99.90
8420;DHT22;4247;48.550;8.822;2023-05-24T00:57:23;12.60;99.90
8420;DHT22;4247;48.550;8.822;2023-05-24T00:59:50;12.70;99.90
8420;DHT22;4247;48.550;8.822;2023-05-24T01:02:17;12.60;99.90
8420;DHT22;4247;48.550;8.822;2023-05-24T01:04:45;12.60;99.90
8420;DHT22;4247;48.550;8.822;2023-05-24T01:07:21;12.60;99.90
8420;DHT22;4247;48.550;8.822;2023-05-24T01:10:04;12.50;99.90
8420;DHT22;4247;48.550;8.822;2023-05-24T01:12:44;12.50;99.90
8420;DHT22;4247;48.550;8.822;2023-05-24T01:15:19;12.50;99.90
8420;DHT22;4247;48.550;8.822;2023-05-24T01:17:52;12.50;99.90
8420;DHT22;4247;48.550;8.822;2023-05-24T01:20:25;12.60;99.90
8420;DHT22;4247;48.550;8.822;2023-05-24T01:23:17;12.50;99.90
8420;DHT22;4247;48.550;8.822;2023-05-24T01:25:52;12.60;99.90
8420;DHT22;4247;48.550;8.822;2023-05-24T01:28:23;12.60;99.90
8420;DHT22;4247;48.550;8.822;2023-05-24T01:30:50;12.60;99.90
8420;DHT22;4247;48.550;8.822;2023-05-24T01:33:17;12.50;99.90
8420;DHT22;4247;48.550;8.822;2023-05-24T01:35:44;12.60;99.90
8420;DHT22;4247;48.550;8.822;2023-05-24T01:38:10;12.50;99.90
8420;DHT22;4247;48.550;8.822;2023-05-24T01:40:37;12.40;99.90
8420;DHT22;4247;48.550;8.822;2023-05-24T01:43:14;12.40;99.90
8420;DHT22;4247;48.550;8.822;2023-05-24T01:45:51;12.40;99.90
8420;DHT22;4247;48.550;8.822;2023-05-24T01:48:28;12.40;99.90
8420;DHT22;4247;48.550;8.822;2023-05-24T01:50:57;12.30;99.90
8420;DHT22;4247;48.550;8.822;2023-05-24T01:53:25;12.30;99.90
8420;DHT22;4247;48.550;8.822;2023-05-24T01:55:56;12.30;99.90
8420;DHT22;4247;48.550;8.822;2023-05-24T01:58:24;12.20;99.90
8420;DHT22;4247;48.550;8.822;2023-05-24T02:00:53;12.30;99.90
8420;DHT22;4247;48.550;8.822;2023-05-24T02:03:21;12.30;99.90
8420;DHT22;4247;48.550;8.822;2023-05-24T02:05:48;12.40;99.90
8420;DHT22;4247;48.550;8.822;2023-05-24T02:08:14;12.30;99.90
8420;DHT22;4247;48.550;8.822;2023-05-24T02:10:41;12.30;99.90
8420;DHT22;4247;48.550;8.822;2023-05-24T02:13:08;12.20;99.90
8420;DHT22;4247;48.550;8.822;2023-05-24T02:15:35;12.20;99.90
8420;DHT22;4247;48.550;8.822;2023-05-24T02:18:03;12.20;99.90
8420;DHT22;4247;48.550;8.822;2023-05-24T02:20:32;12.20;99.90
8420;DHT22;4247;48.550;8.822;2023-05-24T02:23:01;12.10;99.90
8420;DHT22;4247;48.550;8.822;2023-05-24T02:25:28;12.10;99.90
8420;DHT22;4247;48.550;8.822;2023-05-24T02:27:56;12.20;99.90
8420;DHT22;4247;48.550;8.822;2023-05-24T02:30:22;12.10;99.90
8420;DHT22;4247;48.550;8.822;2023-05-24T02:32:49;12.10;99.90
8420;DHT22;4247;48.550;8.822;2023-05-24T02:35:17;12.00;99.90
8420;DHT22;4247;48.550;8.822;2023-05-24T02:37:44;12.00;99.90
8420;DHT22;4247;48.550;8.822;2023-05-24T02:40:11;12.00;99.90
8420;DHT22;4247;48.550;8.822;2023-05-24T02:42:38;12.00;99.90
8420;DHT22;4247;48.550;8.822;2023-05-24T02:45:06;12.00;99.90
8420;DHT22;4247;48.550;8.822;2023-05-24T02:47:33;12.00;99.90
8420;DHT22;4247;48.550;8.822;2023-05-24T02:49:59;11.90;99.90
8420;DHT22;4247;48.550;8.822;2023-05-24T02:52:27;11.90;99.90
8420;DHT22;4247;48.550;8.822;2023-05-24T02:54:54;11.90;99.90
8420;DHT22;4247;48.550;8.822;2023-05-24T02:57:21;11.80;99.90
8420;DHT22;4247;48.550;8.822;2023-05-24T02:59:48;11.80;99.90
8420;DHT22;4247;48.550;8.822;2023-05-24T03:02:14;11.80;99.90
8420;DHT22;4247;48.550;8.822;2023-05-24T03:04:42;11.70;99.90
8420;DHT22;4247;48.550;8.822;2023-05-24T03:07:09;11.70;99.90
8420;DHT22;4247;48.550;8.822;2023-05-24T03:09:37;11.70;99.90
8420;DHT22;4247;48.550;8.822;2023-05-24T03:12:04;11.70;99.90
8420;DHT22;4247;48.550;8.822;2023-05-24T03:14:31;11.70;99.90
8420;DHT22;4247;48.550;8.822;2023-05-24T03:16:58;11.80;99.90
8420;DHT22;4247;48.550;8.822;2023-05-24T03:19:25;11.80;99.90
8420;DHT22;4247;48.550;8.822;2023-05-24T03:21:51;11.80;99.90
8420;DHT22;4247;48.550;8.822;2023-05-24T03:24:18;11.70;99.90
8420;DHT22;4247;48.550;8.822;2023-05-24T03:26:46;11.70;99.90
8420;DHT22;4247;48.550;8.822;2023-05-24T03:29:13;11.60;99.90
8420;DHT22;4247;48.550;8.822;2023-05-24T03:31:39;11.60;99.90
8420;DHT22;4247;48.550;8.822;2023-05-24T03:34:06;11.60;99.90
8420;DHT22;4247;48.550;8.822;2023-05-24T03:36:33;11.60;99.90
8420;DHT22;4247;48.550;8.822;2023-05-24T03:39:00;11.60;99.90
8420;DHT22;4247;48.550;8.822;2023-05-24T03:41:28;11.60;99.90
8420;DHT22;4247;48.550;8.822;2023-05-24T03:43:57;11.50;99.90
8420;DHT22;4247;48.550;8.822;2023-05-24T03:46:24;11.50;99.90
8420;DHT22;4247;48.550;8.822;2023-05-24T03:48:51;11.50;99.90
8420;DHT22;4247;48.550;8.822;2023-05-24T03:51:17;11.50;99.90
8420;DHT22;4247;48.550;8.822;2023-05-24T03:53:44;11.50;99.90
8420;DHT22;4247;48.550;8.822;2023-05-24T03:56:11;11.50;99.90
8420;DHT22;4247;48.550;8.822;2023-05-24T03:58:38;11.40;99.90
8420;DHT22;4247;48.550;8.822;2023-05-24T04:01:06;11.40;99.90
8420;DHT22;4247;48.550;8.822;2023-05-24T04:03:33;11.30;99.90
8420;DHT22;4247;48.550;8.822;2023-05-24T04:06:00;11.20;99.90
8420;DHT22;4247;48.550;8.822;2023-05-24T04:08:27;11.30;99.90
8420;DHT22;4247;48.550;8.822;2023-05-24T04:10:54;11.20;99.90
8420;DHT22;4247;48.550;8.822;2023-05-24T04:13:21;11.20;99.90
8420;DHT22;4247;48.550;8.822;2023-05-24T04:15:48;11.30;99.90
8420;DHT22;4247;48.550;8.822;2023-05-24T04:18:16;11.30;99.90
8420;DHT22;4247;48.550;8.822;2023-05-24T04:20:42;11.30;99.90
8420;DHT22;4247;48.550;8.822;2023-05-24T04:23:09;11.30;99.90
8420;DHT22;4247;48.550;8.822;2023-05-24T04:25:36;11.30;99.90
8420;DHT22;4247;48.550;8.822;2023-05-24T04:28:03;11.20;99.90
8420;DHT22;4247;48.550;8.822;2023-05-24T04:30:30;11.20;99.90
8420;DHT22;4247;48.550;8.822;2023-05-24T04:32:57;11.20;99.90
8420;DHT22;4247;48.550;8.822;2023-05-24T04:35:26;11.30;99.90
8420;DHT22;4247;48.550;8.822;2023-05-24T04:37:53;11.30;99.90
8420;DHT22;4247;48.550;8.822;2023-05-24T04:40:20;11.40;99.90
8420;DHT22;4247;48.550;8.822;2023-05-24T04:42:47;11.30;99.90
8420;DHT22;4247;48.550;8.822;2023-05-24T04:45:14;11.30;99.90
8420;DHT22;4247;48.550;8.822;2023-05-24T04:47:41;11.40;99.90
8420;DHT22;4247;48.550;8.822;2023-05-24T04:50:08;11.40;99.90
8420;DHT22;4247;48.550;8.822;2023-05-24T04:52:36;11.30;99.90
8420;DHT22;4247;48.550;8.822;2023-05-24T04:55:04;11.40;99.90
8420;DHT22;4247;48.550;8.822;2023-05-24T04:57:31;11.40;99.90
8420;DHT22;4247;48.550;8.822;2023-05-24T04:59:58;11.30;99.90
8420;DHT22;4247;48.550;8.822;2023-05-24T05:02:24;11.30;99.90
8420;DHT22;4247;48.550;8.822;2023-05-24T05:04:51;11.30;99.90
8420;DHT22;4247;48.550;8.822;2023-05-24T05:07:18;11.20;99.90
8420;DHT22;4247;48.550;8.822;2023-05-24T05:09:47;11.20;99.90
8420;DHT22;4247;48.550;8.822;2023-05-24T05:12:14;11.20;99.90
8420;DHT22;4247;48.550;8.822;2023-05-24T05:14:40;11.20;99.90
8420;DHT22;4247;48.550;8.822;2023-05-24T05:17:07;11.20;99.90
8420;DHT22;4247;48.550;8.822;2023-05-24T05:19:34;11.20;99.90
8420;DHT22;4247;48.550;8.822;2023-05-24T05:22:01;11.20;99.90
8420;DHT22;4247;48.550;8.822;2023-05-24T05:24:28;11.20;99.90
8420;DHT22;4247;48.550;8.822;2023-05-24T05:26:56;11.20;99.90
8420;DHT22;4247;48.550;8.822;2023-05-24T05:29:23;11.20;99.90
8420;DHT22;4247;48.550;8.822;2023-05-24T05:31:50;11.30;99.90
8420;DHT22;4247;48.550;8.822;2023-05-24T05:34:16;11.30;99.90
8420;DHT22;4247;48.550;8.822;2023-05-24T05:36:44;11.20;99.90
8420;DHT22;4247;48.550;8.822;2023-05-24T05:39:11;11.20;99.90
8420;DHT22;4247;48.550;8.822;2023-05-24T05:41:39;11.20;99.90
8420;DHT22;4247;48.550;8.822;2023-05-24T05:44:09;11.20;99.90
8420;DHT22;4247;48.550;8.822;2023-05-24T05:46:37;11.20;99.90
8420;DHT22;4247;48.550;8.822;2023-05-24T05:49:03;11.30;99.90
8420;DHT22;4247;48.550;8.822;2023-05-24T05:51:30;11.20;99.90
8420;DHT22;4247;48.550;8.822;2023-05-24T05:53:57;11.20;99.90
8420;DHT22;4247;48.550;8.822;2023-05-24T05:56:24;11.20;99.90
8420;DHT22;4247;48.550;8.822;2023-05-24T05:58:52;11.20;99.90
8420;DHT22;4247;48.550;8.822;2023-05-24T06:01:20;11.10;99.90
8420;DHT22;4247;48.550;8.822;2023-05-24T06:03:47;11.10;99.90
8420;DHT22;4247;48.550;8.822;2023-05-24T06:06:13;11.20;99.90
8420;DHT22;4247;48.550;8.822;2023-05-24T06:08:40;11.20;99.90
8420;DHT22;4247;48.550;8.822;2023-05-24T06:11:07;11.20;99.90
8420;DHT22;4247;48.550;8.822;2023-05-24T06:13:34;11.20;99.90
8420;DHT22;4247;48.550;8.822;2023-05-24T06:16:00;11.20;99.90
8420;DHT22;4247;48.550;8.822;2023-05-24T06:18:29;11.10;99.90
8420;DHT22;4247;48.550;8.822;2023-05-24T06:20:57;11.20;99.90
8420;DHT22;4247;48.550;8.822;2023-05-24T06:23:23;11.30;99.90
8420;DHT22;4247;48.550;8.822;2023-05-24T06:25:50;11.40;99.90
8420;DHT22;4247;48.550;8.822;2023-05-24T06:28:17;11.40;99.90
8420;DHT22;4247;48.550;8.822;2023-05-24T06:30:45;11.30;99.90
8420;DHT22;4247;48.550;8.822;2023-05-24T06:33:12;11.40;99.90
8420;DHT22;4247;48.550;8.822;2023-05-24T06:35:40;11.40;99.90
8420;DHT22;4247;48.550;8.822;2023-05-24T06:38:07;11.40;99.90
8420;DHT22;4247;48.550;8.822;2023-05-24T06:40:34;11.50;99.90
8420;DHT22;4247;48.550;8.822;2023-05-24T06:43:01;11.40;99.90
8420;DHT22;4247;48.550;8.822;2023-05-24T06:45:28;11.40;99.90
8420;DHT22;4247;48.550;8.822;2023-05-24T06:47:55;11.40;99.90
8420;DHT22;4247;48.550;8.822;2023-05-24T06:50:21;11.40;99.90
8420;DHT22;4247;48.550;8.822;2023-05-24T06:52:49;11.50;99.90
8420;DHT22;4247;48.550;8.822;2023-05-24T06:55:16;11.50;99.90
8420;DHT22;4247;48.550;8.822;2023-05-24T06:57:43;11.50;99.90
8420;DHT22;4247;48.550;8.822;2023-05-24T07:00:10;11.60;99.90
8420;DHT22;4247;48.550;8.822;2023-05-24T07:02:38;11.60;99.90
8420;DHT22;4247;48.550;8.822;2023-05-24T07:05:05;11.70;99.90
8420;DHT22;4247;48.550;8.822;2023-05-24T07:07:36;11.80;99.90
8420;DHT22;4247;48.550;8.822;2023-05-24T07:10:05;11.80;99.90
8420;DHT22;4247;48.550;8.822;2023-05-24T07:12:33;11.80;99.90
8420;DHT22;4247;48.550;8.822;2023-05-24T07:14:59;11.90;99.90
8420;DHT22;4247;48.550;8.822;2023-05-24T07:17:26;11.90;99.90
8420;DHT22;4247;48.550;8.822;2023-05-24T07:19:53;11.90;99.90
8420;DHT22;4247;48.550;8.822;2023-05-24T07:22:19;11.90;99.90
8420;DHT22;4247;48.550;8.822;2023-05-24T07:24:47;11.90;99.90
8420;DHT22;4247;48.550;8.822;2023-05-24T07:27:15;12.00;99.90
8420;DHT22;4247;48.550;8.822;2023-05-24T07:29:41;12.00;99.90
8420;DHT22;4247;48.550;8.822;2023-05-24T07:32:08;12.00;99.90
8420;DHT22;4247;48.550;8.822;2023-05-24T07:34:35;12.00;99.90
8420;DHT22;4247;48.550;8.822;2023-05-24T07:37:04;12.00;99.90
8420;DHT22;4247;48.550;8.822;2023-05-24T07:39:31;12.00;99.90
8420;DHT22;4247;48.550;8.822;2023-05-24T07:41:57;12.00;99.90
8420;DHT22;4247;48.550;8.822;2023-05-24T07:44:25;12.00;99.90
8420;DHT22;4247;48.550;8.822;2023-05-24T07:46:52;12.00;99.90
8420;DHT22;4247;48.550;8.822;2023-05-24T07:49:19;12.00;99.90
8420;DHT22;4247;48.550;8.822;2023-05-24T07:51:46;12.10;99.90
8420;DHT22;4247;48.550;8.822;2023-05-24T07:54:13;12.10;99.90
8420;DHT22;4247;48.550;8.822;2023-05-24T07:56:40;12.10;99.90
8420;DHT22;4247;48.550;8.822;2023-05-24T07:59:07;12.10;99.90
8420;DHT22;4247;48.550;8.822;2023-05-24T08:01:36;12.20;99.90
8420;DHT22;4247;48.550;8.822;2023-05-24T08:04:03;12.30;99.90
8420;DHT22;4247;48.550;8.822;2023-05-24T08:06:30;12.20;99.90
8420;DHT22;4247;48.550;8.822;2023-05-24T08:08:57;12.30;99.90
8420;DHT22;4247;48.550;8.822;2023-05-24T08:11:23;12.30;99.90
8420;DHT22;4247;48.550;8.822;2023-05-24T08:13:50;12.40;99.90
8420;DHT22;4247;48.550;8.822;2023-05-24T08:16:17;12.40;99.90
8420;DHT22;4247;48.550;8.822;2023-05-24T08:18:45;12.50;99.90
8420;DHT22;4247;48.550;8.822;2023-05-24T08:21:12;12.40;99.90
8420;DHT22;4247;48.550;8.822;2023-05-24T08:23:39;12.50;99.90
8420;DHT22;4247;48.550;8.822;2023-05-24T08:26:06;12.50;99.90
8420;DHT22;4247;48.550;8.822;2023-05-24T08:28:33;12.50;99.90
8420;DHT22;4247;48.550;8.822;2023-05-24T08:31:00;12.60;99.90
8420;DHT22;4247;48.550;8.822;2023-05-24T08:33:27;12.70;99.90
8420;DHT22;4247;48.550;8.822;2023-05-24T08:35:55;12.90;99.90
8420;DHT22;4247;48.550;8.822;2023-05-24T08:38:22;13.00;99.90
8420;DHT22;4247;48.550;8.822;2023-05-24T08:40:49;13.00;99.90
8420;DHT22;4247;48.550;8.822;2023-05-24T08:43:16;12.90;99.90
8420;DHT22;4247;48.550;8.822;2023-05-24T08:45:44;13.00;99.90
8420;DHT22;4247;48.550;8.822;2023-05-24T08:48:11;13.00;99.90
8420;DHT22;4247;48.550;8.822;2023-05-24T08:50:38;13.10;99.90
8420;DHT22;4247;48.550;8.822;2023-05-24T08:53:08;13.10;99.90
8420;DHT22;4247;48.550;8.822;2023-05-24T08:55:36;13.30;99.90
8420;DHT22;4247;48.550;8.822;2023-05-24T08:58:04;13.20;99.90
8420;DHT22;4247;48.550;8.822;2023-05-24T09:00:30;13.40;99.90
8420;DHT22;4247;48.550;8.822;2023-05-24T09:02:58;13.50;99.90
8420;DHT22;4247;48.550;8.822;2023-05-24T09:05:26;13.70;99.90
8420;DHT22;4247;48.550;8.822;2023-05-24T09:07:55;13.80;99.90
8420;DHT22;4247;48.550;8.822;2023-05-24T09:10:28;14.00;99.90
8420;DHT22;4247;48.550;8.822;2023-05-24T09:12:56;14.20;99.90
8420;DHT22;4247;48.550;8.822;2023-05-24T09:15:26;14.40;99.90
8420;DHT22;4247;48.550;8.822;2023-05-24T09:17:53;14.60;99.90
8420;DHT22;4247;48.550;8.822;2023-05-24T09:20:20;14.60;99.90
8420;DHT22;4247;48.550;8.822;2023-05-24T09:22:50;14.70;99.90
8420;DHT22;4247;48.550;8.822;2023-05-24T09:25:18;14.60;99.90
8420;DHT22;4247;48.550;8.822;2023-05-24T09:27:50;14.70;99.70
8420;DHT22;4247;48.550;8.822;2023-05-24T09:30:17;14.50;99.30
8420;DHT22;4247;48.550;8.822;2023-05-24T09:32:54;14.40;99.60
8420;DHT22;4247;48.550;8.822;2023-05-24T09:35:22;14.40;99.70
8420;DHT22;4247;48.550;8.822;2023-05-24T09:37:48;14.50;99.90
8420;DHT22;4247;48.550;8.822;2023-05-24T09:40:18;14.40;99.40
8420;DHT22;4247;48.550;8.822;2023-05-24T09:42:45;14.40;99.30
8420;DHT22;4247;48.550;8.822;2023-05-24T09:45:17;14.30;99.60
8420;DHT22;4247;48.550;8.822;2023-05-24T09:47:44;14.30;99.60
8420;DHT22;4247;48.550;8.822;2023-05-24T09:50:12;14.20;99.20
8420;DHT22;4247;48.550;8.822;2023-05-24T09:52:39;14.20;99.70
8420;DHT22;4247;48.550;8.822;2023-05-24T09:55:12;14.10;99.50
8420;DHT22;4247;48.550;8.822;2023-05-24T09:57:39;14.00;99.70
8420;DHT22;4247;48.550;8.822;2023-05-24T10:00:07;14.10;99.10
8420;DHT22;4247;48.550;8.822;2023-05-24T10:02:43;13.90;98.70
8420;DHT22;4247;48.550;8.822;2023-05-24T10:05:10;13.80;98.80
8420;DHT22;4247;48.550;8.822;2023-05-24T10:07:37;13.80;99.40
8420;DHT22;4247;48.550;8.822;2023-05-24T10:10:06;13.70;99.60
8420;DHT22;4247;48.550;8.822;2023-05-24T10:12:33;13.60;99.30
8420;DHT22;4247;48.550;8.822;2023-05-24T10:15:02;13.60;99.50
8420;DHT22;4247;48.550;8.822;2023-05-24T10:17:29;13.60;99.10
8420;DHT22;4247;48.550;8.822;2023-05-24T10:19:57;13.70;99.80
8420;DHT22;4247;48.550;8.822;2023-05-24T10:22:24;13.60;98.90
8420;DHT22;4247;48.550;8.822;2023-05-24T10:24:52;13.60;99.40
8420;DHT22;4247;48.550;8.822;2023-05-24T10:27:26;13.70;99.30
8420;DHT22;4247;48.550;8.822;2023-05-24T10:30:00;13.80;98.80
8420;DHT22;4247;48.550;8.822;2023-05-24T10:32:30;13.90;99.00
8420;DHT22;4247;48.550;8.822;2023-05-24T10:35:01;13.90;98.70
8420;DHT22;4247;48.550;8.822;2023-05-24T10:37:29;13.90;99.40
8420;DHT22;4247;48.550;8.822;2023-05-24T10:39:57;13.90;99.00
8420;DHT22;4247;48.550;8.822;2023-05-24T10:42:25;13.90;99.20
8420;DHT22;4247;48.550;8.822;2023-05-24T10:44:53;14.10;99.20
8420;DHT22;4247;48.550;8.822;2023-05-24T10:47:24;13.90;98.40
8420;DHT22;4247;48.550;8.822;2023-05-24T10:49:55;14.00;98.80
8420;DHT22;4247;48.550;8.822;2023-05-24T10:52:34;14.20;99.30
8420;DHT22;4247;48.550;8.822;2023-05-24T10:55:02;14.20;99.00
8420;DHT22;4247;48.550;8.822;2023-05-24T10:57:32;14.00;98.80
8420;DHT22;4247;48.550;8.822;2023-05-24T11:00:26;13.80;97.90
8420;DHT22;4247;48.550;8.822;2023-05-24T11:02:59;13.80;98.50
8420;DHT22;4247;48.550;8.822;2023-05-24T11:05:32;13.60;98.90
8420;DHT22;4247;48.550;8.822;2023-05-24T11:08:01;13.60;98.30
8420;DHT22;4247;48.550;8.822;2023-05-24T11:10:31;13.60;99.20
8420;DHT22;4247;48.550;8.822;2023-05-24T11:12:59;13.50;99.50
8420;DHT22;4247;48.550;8.822;2023-05-24T11:15:26;13.50;99.80
8420;DHT22;4247;48.550;8.822;2023-05-24T11:18:12;13.60;99.70
8420;DHT22;4247;48.550;8.822;2023-05-24T11:20:41;13.50;98.90
8420;DHT22;4247;48.550;8.822;2023-05-24T11:23:10;13.40;99.60
8420;DHT22;4247;48.550;8.822;2023-05-24T11:25:37;13.30;99.00
8420;DHT22;4247;48.550;8.822;2023-05-24T11:28:06;13.40;99.30
8420;DHT22;4247;48.550;8.822;2023-05-24T11:30:38;13.60;99.40
8420;DHT22;4247;48.550;8.822;2023-05-24T11:33:05;13.50;98.90
8420;DHT22;4247;48.550;8.822;2023-05-24T11:35:38;13.50;98.40
8420;DHT22;4247;48.550;8.822;2023-05-24T11:38:10;13.50;98.20
8420;DHT22;4247;48.550;8.822;2023-05-24T11:40:39;13.50;98.50
8420;DHT22;4247;48.550;8.822;2023-05-24T11:43:10;13.60;98.40
8420;DHT22;4247;48.550;8.822;2023-05-24T11:45:38;13.60;98.60
8420;DHT22;4247;48.550;8.822;2023-05-24T11:48:07;13.60;98.00
8420;DHT22;4247;48.550;8.822;2023-05-24T11:50:37;13.60;97.90
8420;DHT22;4247;48.550;8.822;2023-05-24T11:53:05;13.60;97.30
8420;DHT22;4247;48.550;8.822;2023-05-24T11:55:33;13.80;98.10
8420;DHT22;4247;48.550;8.822;2023-05-24T11:58:01;13.80;97.80
8420;DHT22;4247;48.550;8.822;2023-05-24T12:00:31;13.80;98.30
8420;DHT22;4247;48.550;8.822;2023-05-24T12:02:58;13.80;98.40
8420;DHT22;4247;48.550;8.822;2023-05-24T12:05:29;13.90;97.70
8420;DHT22;4247;48.550;8.822;2023-05-24T12:08:01;13.90;98.10
8420;DHT22;4247;48.550;8.822;2023-05-24T12:10:29;13.90;98.40
8420;DHT22;4247;48.550;8.822;2023-05-24T12:12:57;13.90;97.60
8420;DHT22;4247;48.550;8.822;2023-05-24T12:15:24;13.90;98.10
8420;DHT22;4247;48.550;8.822;2023-05-24T12:17:51;13.80;97.90
8420;DHT22;4247;48.550;8.822;2023-05-24T12:20:17;14.00;98.50
8420;DHT22;4247;48.550;8.822;2023-05-24T12:22:47;13.90;96.90
8420;DHT22;4247;48.550;8.822;2023-05-24T12:25:16;13.90;97.10
8420;DHT22;4247;48.550;8.822;2023-05-24T12:27:44;13.90;97.20
8420;DHT22;4247;48.550;8.822;2023-05-24T12:30:15;13.90;97.10
8420;DHT22;4247;48.550;8.822;2023-05-24T12:32:46;13.90;97.70
8420;DHT22;4247;48.550;8.822;2023-05-24T12:35:13;13.80;97.90
8420;DHT22;4247;48.550;8.822;2023-05-24T12:37:40;13.80;97.10
8420;DHT22;4247;48.550;8.822;2023-05-24T12:40:14;13.80;97.70
8420;DHT22;4247;48.550;8.822;2023-05-24T12:42:42;13.90;97.50
8420;DHT22;4247;48.550;8.822;2023-05-24T12:45:10;13.70;94.90
8420;DHT22;4247;48.550;8.822;2023-05-24T12:47:38;13.80;95.30
8420;DHT22;4247;48.550;8.822;2023-05-24T12:50:05;13.80;95.30
8420;DHT22;4247;48.550;8.822;2023-05-24T12:55:08;13.90;96.10
8420;DHT22;4247;48.550;8.822;2023-05-24T12:57:34;13.90;95.80
8420;DHT22;4247;48.550;8.822;2023-05-24T13:00:01;14.00;95.80
8420;DHT22;4247;48.550;8.822;2023-05-24T13:02:28;14.00;93.80
8420;DHT22;4247;48.550;8.822;2023-05-24T13:04:57;14.00;94.20
8420;DHT22;4247;48.550;8.822;2023-05-24T13:07:23;14.10;94.00
8420;DHT22;4247;48.550;8.822;2023-05-24T13:09:50;14.20;94.00
8420;DHT22;4247;48.550;8.822;2023-05-24T13:12:17;14.20;94.20
8420;DHT22;4247;48.550;8.822;2023-05-24T13:14:43;14.30;93.50
8420;DHT22;4247;48.550;8.822;2023-05-24T13:17:10;14.40;94.00
8420;DHT22;4247;48.550;8.822;2023-05-24T13:19:37;14.40;93.90
8420;DHT22;4247;48.550;8.822;2023-05-24T13:22:05;14.50;93.70
8420;DHT22;4247;48.550;8.822;2023-05-24T13:24:31;14.60;94.10
8420;DHT22;4247;48.550;8.822;2023-05-24T13:26:58;14.60;93.80
8420;DHT22;4247;48.550;8.822;2023-05-24T13:29:25;14.70;93.30
8420;DHT22;4247;48.550;8.822;2023-05-24T13:31:52;14.70;93.00
8420;DHT22;4247;48.550;8.822;2023-05-24T13:34:19;14.60;92.40
8420;DHT22;4247;48.550;8.822;2023-05-24T13:36:46;14.50;91.40
8420;DHT22;4247;48.550;8.822;2023-05-24T13:39:14;14.50;91.90
8420;DHT22;4247;48.550;8.822;2023-05-24T13:41:40;14.50;91.80
8420;DHT22;4247;48.550;8.822;2023-05-24T13:44:07;14.40;90.60
8420;DHT22;4247;48.550;8.822;2023-05-24T13:46:34;14.50;90.70
8420;DHT22;4247;48.550;8.822;2023-05-24T13:49:01;14.50;90.00
8420;DHT22;4247;48.550;8.822;2023-05-24T13:51:27;14.50;90.20
8420;DHT22;4247;48.550;8.822;2023-05-24T13:53:55;14.50;90.30
8420;DHT22;4247;48.550;8.822;2023-05-24T13:56:23;14.40;84.90
8420;DHT22;4247;48.550;8.822;2023-05-24T13:58:50;14.50;86.80
8420;DHT22;4247;48.550;8.822;2023-05-24T14:01:17;14.60;86.80
8420;DHT22;4247;48.550;8.822;2023-05-24T14:03:45;14.60;87.80
8420;DHT22;4247;48.550;8.822;2023-05-24T14:06:11;14.60;86.10
8420;DHT22;4247;48.550;8.822;2023-05-24T14:08:38;14.60;86.40
8420;DHT22;4247;48.550;8.822;2023-05-24T14:11:05;14.70;90.30
8420;DHT22;4247;48.550;8.822;2023-05-24T14:13:33;14.70;89.80
8420;DHT22;4247;48.550;8.822;2023-05-24T14:16:00;14.80;89.50
8420;DHT22;4247;48.550;8.822;2023-05-24T14:18:26;14.80;87.20
8420;DHT22;4247;48.550;8.822;2023-05-24T14:20:53;14.70;87.40
8420;DHT22;4247;48.550;8.822;2023-05-24T14:23:20;14.80;87.90
8420;DHT22;4247;48.550;8.822;2023-05-24T14:25:47;14.80;85.30
8420;DHT22;4247;48.550;8.822;2023-05-24T14:28:15;14.80;85.50
8420;DHT22;4247;48.550;8.822;2023-05-24T14:30:43;14.80;87.30
8420;DHT22;4247;48.550;8.822;2023-05-24T14:33:10;14.90;83.40
8420;DHT22;4247;48.550;8.822;2023-05-24T14:35:38;14.90;82.30
8420;DHT22;4247;48.550;8.822;2023-05-24T14:38:04;14.90;88.10
8420;DHT22;4247;48.550;8.822;2023-05-24T14:40:31;15.00;87.20
8420;DHT22;4247;48.550;8.822;2023-05-24T14:42:58;15.00;89.80
8420;DHT22;4247;48.550;8.822;2023-05-24T14:45:25;15.10;89.70
8420;DHT22;4247;48.550;8.822;2023-05-24T14:47:53;15.00;88.20
8420;DHT22;4247;48.550;8.822;2023-05-24T14:50:20;15.10;90.40
8420;DHT22;4247;48.550;8.822;2023-05-24T14:52:47;15.00;90.00
8420;DHT22;4247;48.550;8.822;2023-05-24T14:55:14;15.20;90.60
8420;DHT22;4247;48.550;8.822;2023-05-24T14:57:41;15.10;88.00
8420;DHT22;4247;48.550;8.822;2023-05-24T15:00:08;15.10;86.90
8420;DHT22;4247;48.550;8.822;2023-05-24T15:02:35;15.10;86.40
8420;DHT22;4247;48.550;8.822;2023-05-24T15:05:04;15.10;84.70
8420;DHT22;4247;48.550;8.822;2023-05-24T15:07:31;15.10;85.60
8420;DHT22;4247;48.550;8.822;2023-05-24T15:09:58;15.10;84.30
8420;DHT22;4247;48.550;8.822;2023-05-24T15:12:24;15.20;86.00
8420;DHT22;4247;48.550;8.822;2023-05-24T15:14:51;15.20;86.40
8420;DHT22;4247;48.550;8.822;2023-05-24T15:17:18;15.20;88.50
8420;DHT22;4247;48.550;8.822;2023-05-24T15:19:45;15.30;87.00
8420;DHT22;4247;48.550;8.822;2023-05-24T15:22:13;15.20;86.40
8420;DHT22;4247;48.550;8.822;2023-05-24T15:24:40;15.10;84.50
8420;DHT22;4247;48.550;8.822;2023-05-24T15:27:06;15.10;86.40
8420;DHT22;4247;48.550;8.822;2023-05-24T15:29:33;15.10;87.00
8420;DHT22;4247;48.550;8.822;2023-05-24T15:32:00;15.20;87.40
8420;DHT22;4247;48.550;8.822;2023-05-24T15:34:27;15.20;87.20
8420;DHT22;4247;48.550;8.822;2023-05-24T15:36:53;15.20;87.30
8420;DHT22;4247;48.550;8.822;2023-05-24T15:39:21;15.20;87.10
8420;DHT22;4247;48.550;8.822;2023-05-24T15:41:48;15.30;87.20
8420;DHT22;4247;48.550;8.822;2023-05-24T15:44:15;15.40;89.20
8420;DHT22;4247;48.550;8.822;2023-05-24T15:46:41;15.40;84.10
8420;DHT22;4247;48.550;8.822;2023-05-24T15:49:08;15.40;84.30
8420;DHT22;4247;48.550;8.822;2023-05-24T15:51:35;15.30;83.20
8420;DHT22;4247;48.550;8.822;2023-05-24T15:54:03;15.30;84.20
8420;DHT22;4247;48.550;8.822;2023-05-24T15:56:31;15.30;83.40
8420;DHT22;4247;48.550;8.822;2023-05-24T15:58:57;15.30;85.10
8420;DHT22;4247;48.550;8.822;2023-05-24T16:01:24;15.40;84.80
8420;DHT22;4247;48.550;8.822;2023-05-24T16:03:51;15.40;85.30
8420;DHT22;4247;48.550;8.822;2023-05-24T16:06:17;15.40;86.50
8420;DHT22;4247;48.550;8.822;2023-05-24T16:08:44;15.50;85.00